sensor_id;sensor_type;location;lat;lon;timestamp;temperature;humidity
30037;DHT22;36325;51.512;-0.382;2024-02-21T00:00:25;10.10;99.90
30037;DHT22;36325;51.512;-0.382;2024-02-21T00:02:52;10.10;99.90
30037;DHT22;36325;51.512;-0.382;2024-02-21T00:05:20;10.10;99.90
30037;DHT22;36325;51.512;-0.382;2024-02-21T00:07:48;10.10;99.90
30037;DHT22;36325;51.512;-0.382;2024-02-21T00:10:15;10.20;99.90
30037;DHT22;36325;51.512;-0.382;2024-02-21T00:12:43;10.20;99.90
30037;DHT22;36325;51.512;-0.382;2024-02-21T00:15:10;10.20;99.90
30037;DHT22;36325;51.512;-0.382;2024-02-21T00:17:37;10.20;99.90
30037;DHT22;36325;51.512;-0.382;2024-02-21T00:20:04;10.20;99.90
30037;DHT22;36325;51.512;-0.382;2024-02-21T00:22:33;10.30;99.90
30037;DHT22;36325;51.512;-0.382;2024-02-21T00:25:00;10.30;99.90
30037;DHT22;36325;51.512;-0.382;2024-02-21T00:27:27;10.30;99.90
30037;DHT22;36325;51.512;-0.382;2024-02-21T00:29:55;10.30;99.90
30037;DHT22;36325;51.512;-0.382;2024-02-21T00:32:22;10.30;99.90
30037;DHT22;36325;51.512;-0.382;2024-02-21T00:34:49;10.30;99.90
30037;DHT22;36325;51.512;-0.382;2024-02-21T00:37:16;10.30;99.90
30037;DHT22;36325;51.512;-0.382;2024-02-21T00:39:44;10.30;99.90
30037;DHT22;36325;51.512;-0.382;2024-02-21T00:42:11;10.30;99.90
30037;DHT22;36325;51.512;-0.382;2024-02-21T00:44:38;10.30;99.90
30037;DHT22;36325;51.512;-0.382;2024-02-21T00:47:05;10.30;99.90
30037;DHT22;36325;51.512;-0.382;2024-02-21T00:49:33;10.30;99.90
30037;DHT22;36325;51.512;-0.382;2024-02-21T00:52:00;9.80;99.90
30037;DHT22;36325;51.512;-0.382;2024-02-21T00:54:28;10.30;99.90
30037;DHT22;36325;51.512;-0.382;2024-02-21T00:57:02;10.30;99.90
30037;DHT22;36325;51.512;-0.382;2024-02-21T00:59:30;10.40;99.90
30037;DHT22;36325;51.512;-0.382;2024-02-21T01:01:57;10.40;99.90
30037;DHT22;36325;51.512;-0.382;2024-02-21T01:04:24;10.30;99.90
30037;DHT22;36325;51.512;-0.382;2024-02-21T01:06:51;10.40;99.90
30037;DHT22;36325;51.512;-0.382;2024-02-21T01:09:18;10.40;99.90
30037;DHT22;36325;51.512;-0.382;2024-02-21T01:11:45;10.40;99.90
30037;DHT22;36325;51.512;-0.382;2024-02-21T01:14:13;10.40;99.90
30037;DHT22;36325;51.512;-0.382;2024-02-21T01:16:40;10.40;99.90
30037;DHT22;36325;51.512;-0.382;2024-02-21T01:19:08;10.40;99.90
30037;DHT22;36325;51.512;-0.382;2024-02-21T01:21:35;10.40;99.90
30037;DHT22;36325;51.512;-0.382;2024-02-21T01:24:02;10.40;99.90
30037;DHT22;36325;51.512;-0.382;2024-02-21T01:26:30;10.40;99.90
30037;DHT22;36325;51.512;-0.382;2024-02-21T01:28:59;10.40;99.90
30037;DHT22;36325;51.512;-0.382;2024-02-21T01:31:26;10.40;99.90
30037;DHT22;36325;51.512;-0.382;2024-02-21T01:33:54;10.50;99.90
30037;DHT22;36325;51.512;-0.382;2024-02-21T01:36:23;10.40;99.90
30037;DHT22;36325;51.512;-0.382;2024-02-21T01:38:50;10.40;99.90
30037;DHT22;36325;51.512;-0.382;2024-02-21T01:41:18;10.40;99.90
30037;DHT22;36325;51.512;-0.382;2024-02-21T01:43:46;10.90;99.90
30037;DHT22;36325;51.512;-0.382;2024-02-21T01:46:13;10.50;99.90
30037;DHT22;36325;51.512;-0.382;2024-02-21T01:48:40;10.50;99.90
30037;DHT22;36325;51.512;-0.382;2024-02-21T01:51:08;10.50;99.90
30037;DHT22;36325;51.512;-0.382;2024-02-21T01:53:38;10.50;99.90
30037;DHT22;36325;51.512;-0.382;2024-02-21T01:56:07;10.50;99.90
30037;DHT22;36325;51.512;-0.382;2024-02-21T01:58:36;10.50;99.90
30037;DHT22;36325;51.512;-0.382;2024-02-21T02:01:04;10.40;99.90
30037;DHT22;36325;51.512;-0.382;2024-02-21T02:03:31;10.50;99.90
30037;DHT22;36325;51.512;-0.382;2024-02-21T02:06:03;10.50;99.90
30037;DHT22;36325;51.512;-0.382;2024-02-21T02:08:40;10.50;99.90
30037;DHT22;36325;51.512;-0.382;2024-02-21T02:11:15;10.50;99.90
30037;DHT22;36325;51.512;-0.382;2024-02-21T02:13:43;10.40;99.90
30037;DHT22;36325;51.512;-0.382;2024-02-21T02:16:10;10.50;99.90
30037;DHT22;36325;51.512;-0.382;2024-02-21T02:18:38;10.40;99.90
30037;DHT22;36325;51.512;-0.382;2024-02-21T02:21:08;10.40;99.90
30037;DHT22;36325;51.512;-0.382;2024-02-21T02:23:37;10.40;99.90
30037;DHT22;36325;51.512;-0.382;2024-02-21T02:26:05;10.40;99.90
30037;DHT22;36325;51.512;-0.382;2024-02-21T02:28:34;10.50;99.90
30037;DHT22;36325;51.512;-0.382;2024-02-21T02:31:01;10.50;99.90
30037;DHT22;36325;51.512;-0.382;2024-02-21T02:33:28;10.50;99.90
30037;DHT22;36325;51.512;-0.382;2024-02-21T02:35:55;10.50;99.90
30037;DHT22;36325;51.512;-0.382;2024-02-21T02:38:22;10.40;99.90
30037;DHT22;36325;51.512;-0.382;2024-02-21T02:40:49;10.40;99.90
30037;DHT22;36325;51.512;-0.382;2024-02-21T02:43:17;10.50;99.90
30037;DHT22;36325;51.512;-0.382;2024-02-21T02:45:44;10.50;99.90
30037;DHT22;36325;51.512;-0.382;2024-02-21T02:48:11;10.50;99.90
30037;DHT22;36325;51.512;-0.382;2024-02-21T02:50:38;10.50;99.90
30037;DHT22;36325;51.512;-0.382;2024-02-21T02:53:06;10.50;99.90
30037;DHT22;36325;51.512;-0.382;2024-02-21T02:55:33;10.50;99.90
30037;DHT22;36325;51.512;-0.382;2024-02-21T02:58:00;10.50;99.90
30037;DHT22;36325;51.512;-0.382;2024-02-21T03:00:27;10.50;99.90
30037;DHT22;36325;51.512;-0.382;2024-02-21T03:02:55;10.50;99.90
30037;DHT22;36325;51.512;-0.382;2024-02-21T03:05:22;10.40;99.90
30037;DHT22;36325;51.512;-0.382;2024-02-21T03:07:49;10.50;99.90
30037;DHT22;36325;51.512;-0.382;2024-02-21T03:10:17;10.50;99.90
30037;DHT22;36325;51.512;-0.382;2024-02-21T03:12:45;10.50;99.90
30037;DHT22;36325;51.512;-0.382;2024-02-21T03:15:12;10.40;99.90
30037;DHT22;36325;51.512;-0.382;2024-02-21T03:17:41;10.40;99.90
30037;DHT22;36325;51.512;-0.382;2024-02-21T03:20:08;10.30;99.90
30037;DHT22;36325;51.512;-0.382;2024-02-21T03:22:37;10.30;99.90
30037;DHT22;36325;51.512;-0.382;2024-02-21T03:25:05;10.30;99.90
30037;DHT22;36325;51.512;-0.382;2024-02-21T03:27:33;10.20;99.90
30037;DHT22;36325;51.512;-0.382;2024-02-21T03:30:00;10.10;99.90
30037;DHT22;36325;51.512;-0.382;2024-02-21T03:32:28;10.10;99.90
30037;DHT22;36325;51.512;-0.382;2024-02-21T03:34:56;10.00;99.90
30037;DHT22;36325;51.512;-0.382;2024-02-21T03:37:23;9.90;99.90
30037;DHT22;36325;51.512;-0.382;2024-02-21T03:39:50;9.90;99.90
30037;DHT22;36325;51.512;-0.382;2024-02-21T03:42:18;9.90;99.90
30037;DHT22;36325;51.512;-0.382;2024-02-21T03:44:45;9.90;99.90
30037;DHT22;36325;51.512;-0.382;2024-02-21T03:47:12;9.80;99.90
30037;DHT22;36325;51.512;-0.382;2024-02-21T03:49:39;9.80;99.90
30037;DHT22;36325;51.512;-0.382;2024-02-21T03:52:06;9.80;99.90
30037;DHT22;36325;51.512;-0.382;2024-02-21T03:54:35;9.80;99.90
30037;DHT22;36325;51.512;-0.382;2024-02-21T03:57:05;9.80;99.90
30037;DHT22;36325;51.512;-0.382;2024-02-21T03:59:32;9.80;99.90
30037;DHT22;36325;51.512;-0.382;2024-02-21T04:02:00;9.80;99.90
30037;DHT22;36325;51.512;-0.382;2024-02-21T04:04:27;9.80;99.90
30037;DHT22;36325;51.512;-0.382;2024-02-21T04:06:55;9.80;99.90
30037;DHT22;36325;51.512;-0.382;2024-02-21T04:09:22;9.80;99.90
30037;DHT22;36325;51.512;-0.382;2024-02-21T04:11:49;9.80;99.90
30037;DHT22;36325;51.512;-0.382;2024-02-21T04:14:16;9.80;99.90
30037;DHT22;36325;51.512;-0.382;2024-02-21T04:16:44;9.80;99.90
30037;DHT22;36325;51.512;-0.382;2024-02-21T04:19:11;9.80;99.90
30037;DHT22;36325;51.512;-0.382;2024-02-21T04:21:39;9.90;99.90
30037;DHT22;36325;51.512;-0.382;2024-02-21T04:24:06;9.90;99.90
30037;DHT22;36325;51.512;-0.382;2024-02-21T04:26:34;9.80;99.90
30037;DHT22;36325;51.512;-0.382;2024-02-21T04:29:02;9.90;99.90
30037;DHT22;36325;51.512;-0.382;2024-02-21T04:31:31;9.90;99.90
30037;DHT22;36325;51.512;-0.382;2024-02-21T04:34:00;9.90;99.90
30037;DHT22;36325;51.512;-0.382;2024-02-21T04:36:27;9.80;99.90
30037;DHT22;36325;51.512;-0.382;2024-02-21T04:38:54;9.90;99.90
30037;DHT22;36325;51.512;-0.382;2024-02-21T04:41:21;9.90;99.90
30037;DHT22;36325;51.512;-0.382;2024-02-21T04:43:50;9.90;99.90
30037;DHT22;36325;51.512;-0.382;2024-02-21T04:46:17;9.90;99.90
30037;DHT22;36325;51.512;-0.382;2024-02-21T04:48:45;9.80;99.90
30037;DHT22;36325;51.512;-0.382;2024-02-21T04:51:12;9.90;99.90
30037;DHT22;36325;51.512;-0.382;2024-02-21T04:53:40;9.90;99.90
30037;DHT22;36325;51.512;-0.382;2024-02-21T04:56:07;9.90;99.90
30037;DHT22;36325;51.512;-0.382;2024-02-21T04:58:38;9.90;99.90
30037;DHT22;36325;51.512;-0.382;2024-02-21T05:01:06;9.90;99.90
30037;DHT22;36325;51.512;-0.382;2024-02-21T05:03:34;9.90;99.90
30037;DHT22;36325;51.512;-0.382;2024-02-21T05:06:02;9.90;99.90
30037;DHT22;36325;51.512;-0.382;2024-02-21T05:08:29;9.90;99.90
30037;DHT22;36325;51.512;-0.382;2024-02-21T05:10:56;9.90;99.90
30037;DHT22;36325;51.512;-0.382;2024-02-21T05:13:24;8.80;99.90
30037;DHT22;36325;51.512;-0.382;2024-02-21T05:15:51;9.90;99.90
30037;DHT22;36325;51.512;-0.382;2024-02-21T05:18:18;9.90;99.90
30037;DHT22;36325;51.512;-0.382;2024-02-21T05:20:46;9.90;99.90
30037;DHT22;36325;51.512;-0.382;2024-02-21T05:23:13;9.80;99.90
30037;DHT22;36325;51.512;-0.382;2024-02-21T05:25:40;9.90;99.90
30037;DHT22;36325;51.512;-0.382;2024-02-21T05:28:08;9.90;99.90
30037;DHT22;36325;51.512;-0.382;2024-02-21T05:30:35;9.90;99.90
30037;DHT22;36325;51.512;-0.382;2024-02-21T05:33:05;9.90;99.90
30037;DHT22;36325;51.512;-0.382;2024-02-21T05:35:33;9.90;99.90
30037;DHT22;36325;51.512;-0.382;2024-02-21T05:38:02;9.90;99.90
30037;DHT22;36325;51.512;-0.382;2024-02-21T05:40:33;9.90;99.90
30037;DHT22;36325;51.512;-0.382;2024-02-21T05:43:01;9.90;99.90
30037;DHT22;36325;51.512;-0.382;2024-02-21T05:45:29;9.90;99.90
30037;DHT22;36325;51.512;-0.382;2024-02-21T05:47:56;9.90;99.90
30037;DHT22;36325;51.512;-0.382;2024-02-21T05:50:25;9.90;99.90
30037;DHT22;36325;51.512;-0.382;2024-02-21T05:52:54;9.90;99.90
30037;DHT22;36325;51.512;-0.382;2024-02-21T05:55:22;9.90;99.90
30037;DHT22;36325;51.512;-0.382;2024-02-21T05:57:53;9.90;99.90
30037;DHT22;36325;51.512;-0.382;2024-02-21T06:00:20;9.80;99.90
30037;DHT22;36325;51.512;-0.382;2024-02-21T06:02:47;9.80;99.90
30037;DHT22;36325;51.512;-0.382;2024-02-21T06:05:15;9.80;99.90
30037;DHT22;36325;51.512;-0.382;2024-02-21T06:07:42;9.70;99.90
30037;DHT22;36325;51.512;-0.382;2024-02-21T06:10:09;9.60;99.90
30037;DHT22;36325;51.512;-0.382;2024-02-21T06:12:36;9.60;99.90
30037;DHT22;36325;51.512;-0.382;2024-02-21T06:15:04;9.60;99.90
30037;DHT22;36325;51.512;-0.382;2024-02-21T06:17:31;9.60;99.90
30037;DHT22;36325;51.512;-0.382;2024-02-21T06:19:58;9.50;99.90
30037;DHT22;36325;51.512;-0.382;2024-02-21T06:22:25;9.50;99.90
30037;DHT22;36325;51.512;-0.382;2024-02-21T06:24:53;9.40;99.90
30037;DHT22;36325;51.512;-0.382;2024-02-21T06:27:21;9.40;99.90
30037;DHT22;36325;51.512;-0.382;2024-02-21T06:29:48;9.40;99.90
30037;DHT22;36325;51.512;-0.382;2024-02-21T06:32:16;9.30;99.90
30037;DHT22;36325;51.512;-0.382;2024-02-21T06:34:44;9.40;99.90
30037;DHT22;36325;51.512;-0.382;2024-02-21T06:37:11;9.40;99.90
30037;DHT22;36325;51.512;-0.382;2024-02-21T06:39:39;9.30;99.90
30037;DHT22;36325;51.512;-0.382;2024-02-21T06:42:08;9.30;99.90
30037;DHT22;36325;51.512;-0.382;2024-02-21T06:44:36;9.30;99.90
30037;DHT22;36325;51.512;-0.382;2024-02-21T06:47:07;9.30;99.90
30037;DHT22;36325;51.512;-0.382;2024-02-21T06:49:35;9.30;99.90
30037;DHT22;36325;51.512;-0.382;2024-02-21T06:52:04;9.30;99.90
30037;DHT22;36325;51.512;-0.382;2024-02-21T06:54:32;9.30;99.90
30037;DHT22;36325;51.512;-0.382;2024-02-21T06:57:00;9.30;99.90
30037;DHT22;36325;51.512;-0.382;2024-02-21T06:59:28;9.30;99.90
30037;DHT22;36325;51.512;-0.382;2024-02-21T07:01:56;9.30;99.90
30037;DHT22;36325;51.512;-0.382;2024-02-21T07:04:24;9.30;99.90
30037;DHT22;36325;51.512;-0.382;2024-02-21T07:06:51;9.40;99.90
30037;DHT22;36325;51.512;-0.382;2024-02-21T07:09:19;9.40;99.90
30037;DHT22;36325;51.512;-0.382;2024-02-21T07:11:50;9.40;99.90
30037;DHT22;36325;51.512;-0.382;2024-02-21T07:14:18;9.40;99.90
30037;DHT22;36325;51.512;-0.382;2024-02-21T07:16:46;9.40;99.90
30037;DHT22;36325;51.512;-0.382;2024-02-21T07:19:17;9.40;99.90
30037;DHT22;36325;51.512;-0.382;2024-02-21T07:21:47;9.40;99.90
30037;DHT22;36325;51.512;-0.382;2024-02-21T07:24:15;9.50;99.90
30037;DHT22;36325;51.512;-0.382;2024-02-21T07:26:44;9.50;99.90
30037;DHT22;36325;51.512;-0.382;2024-02-21T07:29:11;9.50;99.90
30037;DHT22;36325;51.512;-0.382;2024-02-21T07:31:42;9.50;99.90
30037;DHT22;36325;51.512;-0.382;2024-02-21T07:34:10;9.50;99.90
30037;DHT22;36325;51.512;-0.382;2024-02-21T07:36:42;9.50;99.90
30037;DHT22;36325;51.512;-0.382;2024-02-21T07:39:10;9.50;99.90
30037;DHT22;36325;51.512;-0.382;2024-02-21T07:41:39;9.50;99.90
30037;DHT22;36325;51.512;-0.382;2024-02-21T07:44:07;9.50;99.90
30037;DHT22;36325;51.512;-0.382;2024-02-21T07:46:35;9.60;99.90
30037;DHT22;36325;51.512;-0.382;2024-02-21T07:49:03;9.60;99.90
30037;DHT22;36325;51.512;-0.382;2024-02-21T07:51:31;9.60;99.90
30037;DHT22;36325;51.512;-0.382;2024-02-21T07:53:58;9.60;99.90
30037;DHT22;36325;51.512;-0.382;2024-02-21T07:56:27;9.70;99.90
30037;DHT22;36325;51.512;-0.382;2024-02-21T07:58:54;9.60;99.90
30037;DHT22;36325;51.512;-0.382;2024-02-21T08:01:22;9.70;99.90
30037;DHT22;36325;51.512;-0.382;2024-02-21T08:04:05;9.70;99.90
30037;DHT22;36325;51.512;-0.382;2024-02-21T08:06:33;9.70;99.90
30037;DHT22;36325;51.512;-0.382;2024-02-21T08:09:00;9.80;99.90
30037;DHT22;36325;51.512;-0.382;2024-02-21T08:11:28;9.80;99.90
30037;DHT22;36325;51.512;-0.382;2024-02-21T08:13:55;9.80;99.90
30037;DHT22;36325;51.512;-0.382;2024-02-21T08:16:26;9.80;99.90
30037;DHT22;36325;51.512;-0.382;2024-02-21T08:18:53;9.80;99.90
30037;DHT22;36325;51.512;-0.382;2024-02-21T08:21:20;9.80;99.90
30037;DHT22;36325;51.512;-0.382;2024-02-21T08:23:48;9.80;99.90
30037;DHT22;36325;51.512;-0.382;2024-02-21T08:26:20;9.80;99.90
30037;DHT22;36325;51.512;-0.382;2024-02-21T08:28:47;9.80;99.90
30037;DHT22;36325;51.512;-0.382;2024-02-21T08:31:18;9.80;99.90
30037;DHT22;36325;51.512;-0.382;2024-02-21T08:33:45;9.80;99.90
30037;DHT22;36325;51.512;-0.382;2024-02-21T08:36:19;9.70;99.90
30037;DHT22;36325;51.512;-0.382;2024-02-21T08:38:47;9.80;99.90
30037;DHT22;36325;51.512;-0.382;2024-02-21T08:41:15;9.80;99.90
30037;DHT22;36325;51.512;-0.382;2024-02-21T08:43:45;9.80;99.90
30037;DHT22;36325;51.512;-0.382;2024-02-21T08:46:12;9.80;99.90
30037;DHT22;36325;51.512;-0.382;2024-02-21T08:48:39;9.80;99.90
30037;DHT22;36325;51.512;-0.382;2024-02-21T08:51:06;9.80;99.90
30037;DHT22;36325;51.512;-0.382;2024-02-21T08:53:34;9.80;99.90
30037;DHT22;36325;51.512;-0.382;2024-02-21T08:56:01;9.80;99.90
30037;DHT22;36325;51.512;-0.382;2024-02-21T08:58:29;9.80;99.90
30037;DHT22;36325;51.512;-0.382;2024-02-21T09:00:56;9.90;99.90
30037;DHT22;36325;51.512;-0.382;2024-02-21T09:03:23;9.90;99.90
30037;DHT22;36325;51.512;-0.382;2024-02-21T09:05:51;9.90;99.90
30037;DHT22;36325;51.512;-0.382;2024-02-21T09:08:18;9.90;99.90
30037;DHT22;36325;51.512;-0.382;2024-02-21T09:10:46;9.90;99.90
30037;DHT22;36325;51.512;-0.382;2024-02-21T09:13:13;9.90;99.90
30037;DHT22;36325;51.512;-0.382;2024-02-21T09:15:40;9.90;99.90
30037;DHT22;36325;51.512;-0.382;2024-02-21T09:18:09;9.90;99.90
30037;DHT22;36325;51.512;-0.382;2024-02-21T09:20:37;10.00;99.90
30037;DHT22;36325;51.512;-0.382;2024-02-21T09:23:04;9.90;99.90
30037;DHT22;36325;51.512;-0.382;2024-02-21T09:25:31;10.00;99.90
30037;DHT22;36325;51.512;-0.382;2024-02-21T09:27:59;10.00;99.90
30037;DHT22;36325;51.512;-0.382;2024-02-21T09:30:26;10.00;99.90
30037;DHT22;36325;51.512;-0.382;2024-02-21T09:32:54;10.00;99.90
30037;DHT22;36325;51.512;-0.382;2024-02-21T09:35:21;10.00;99.90
30037;DHT22;36325;51.512;-0.382;2024-02-21T09:37:50;10.00;99.90
30037;DHT22;36325;51.512;-0.382;2024-02-21T09:40:17;10.00;99.90
30037;DHT22;36325;51.512;-0.382;2024-02-21T09:42:44;9.90;99.90
30037;DHT22;36325;51.512;-0.382;2024-02-21T09:45:20;10.00;99.90
30037;DHT22;36325;51.512;-0.382;2024-02-21T09:50:15;9.90;99.90
30037;DHT22;36325;51.512;-0.382;2024-02-21T09:52:43;9.90;99.90
30037;DHT22;36325;51.512;-0.382;2024-02-21T09:55:11;9.90;99.90
30037;DHT22;36325;51.512;-0.382;2024-02-21T09:57:40;9.90;99.90
30037;DHT22;36325;51.512;-0.382;2024-02-21T10:00:08;9.90;99.90
30037;DHT22;36325;51.512;-0.382;2024-02-21T10:02:39;9.90;99.90
30037;DHT22;36325;51.512;-0.382;2024-02-21T10:05:06;9.90;99.90
30037;DHT22;36325;51.512;-0.382;2024-02-21T10:07:35;9.90;99.90
30037;DHT22;36325;51.512;-0.382;2024-02-21T10:10:03;9.90;99.90
30037;DHT22;36325;51.512;-0.382;2024-02-21T10:12:30;10.00;99.90
30037;DHT22;36325;51.512;-0.382;2024-02-21T10:15:04;10.00;99.90
30037;DHT22;36325;51.512;-0.382;2024-02-21T10:17:32;10.00;99.90
30037;DHT22;36325;51.512;-0.382;2024-02-21T10:20:11;10.00;99.90
30037;DHT22;36325;51.512;-0.382;2024-02-21T10:22:39;10.00;99.90
30037;DHT22;36325;51.512;-0.382;2024-02-21T10:25:07;10.10;99.90
30037;DHT22;36325;51.512;-0.382;2024-02-21T10:27:35;10.10;99.90
30037;DHT22;36325;51.512;-0.382;2024-02-21T10:30:04;10.10;99.90
30037;DHT22;36325;51.512;-0.382;2024-02-21T10:32:31;10.10;99.90
30037;DHT22;36325;51.512;-0.382;2024-02-21T10:35:02;10.10;99.90
30037;DHT22;36325;51.512;-0.382;2024-02-21T10:37:31;10.10;99.90
30037;DHT22;36325;51.512;-0.382;2024-02-21T10:40:02;10.10;99.90
30037;DHT22;36325;51.512;-0.382;2024-02-21T10:42:31;10.10;99.90
30037;DHT22;36325;51.512;-0.382;2024-02-21T10:45:02;10.10;99.90
30037;DHT22;36325;51.512;-0.382;2024-02-21T10:47:31;10.00;99.90
30037;DHT22;36325;51.512;-0.382;2024-02-21T10:50:02;10.10;99.90
30037;DHT22;36325;51.512;-0.382;2024-02-21T10:52:51;10.10;99.90
30037;DHT22;36325;51.512;-0.382;2024-02-21T10:55:30;10.10;99.90
30037;DHT22;36325;51.512;-0.382;2024-02-21T10:57:58;10.10;99.90
30037;DHT22;36325;51.512;-0.382;2024-02-21T11:00:26;10.10;99.90
30037;DHT22;36325;51.512;-0.382;2024-02-21T11:02:57;10.20;99.90
30037;DHT22;36325;51.512;-0.382;2024-02-21T11:05:25;10.20;99.90
30037;DHT22;36325;51.512;-0.382;2024-02-21T11:07:56;10.20;99.90
30037;DHT22;36325;51.512;-0.382;2024-02-21T11:10:24;10.20;99.90
30037;DHT22;36325;51.512;-0.382;2024-02-21T11:15:35;10.20;99.90
30037;DHT22;36325;51.512;-0.382;2024-02-21T11:18:02;10.20;99.90
30037;DHT22;36325;51.512;-0.382;2024-02-21T11:20:36;11.30;99.90
30037;DHT22;36325;51.512;-0.382;2024-02-21T11:23:03;10.30;99.90
30037;DHT22;36325;51.512;-0.382;2024-02-21T11:25:31;10.30;99.90
30037;DHT22;36325;51.512;-0.382;2024-02-21T11:28:01;10.30;99.90
30037;DHT22;36325;51.512;-0.382;2024-02-21T11:30:31;10.30;99.90
30037;DHT22;36325;51.512;-0.382;2024-02-21T11:33:02;10.30;99.90
30037;DHT22;36325;51.512;-0.382;2024-02-21T11:35:33;10.30;99.90
30037;DHT22;36325;51.512;-0.382;2024-02-21T11:38:11;10.30;99.90
30037;DHT22;36325;51.512;-0.382;2024-02-21T11:40:45;10.30;99.90
30037;DHT22;36325;51.512;-0.382;2024-02-21T11:43:12;10.30;99.90
30037;DHT22;36325;51.512;-0.382;2024-02-21T11:45:39;10.30;99.90
30037;DHT22;36325;51.512;-0.382;2024-02-21T11:48:07;10.30;99.90
30037;DHT22;36325;51.512;-0.382;2024-02-21T11:50:34;10.30;99.90
30037;DHT22;36325;51.512;-0.382;2024-02-21T11:53:03;10.30;99.90
30037;DHT22;36325;51.512;-0.382;2024-02-21T11:55:30;10.30;99.90
30037;DHT22;36325;51.512;-0.382;2024-02-21T11:57:57;10.30;99.90
30037;DHT22;36325;51.512;-0.382;2024-02-21T12:00:25;10.30;99.90
30037;DHT22;36325;51.512;-0.382;2024-02-21T12:02:52;10.30;99.90
30037;DHT22;36325;51.512;-0.382;2024-02-21T12:05:19;10.40;99.90
30037;DHT22;36325;51.512;-0.382;2024-02-21T12:07:47;10.40;99.90
30037;DHT22;36325;51.512;-0.382;2024-02-21T12:10:14;10.40;99.90
30037;DHT22;36325;51.512;-0.382;2024-02-21T12:12:41;10.50;99.90
30037;DHT22;36325;51.512;-0.382;2024-02-21T12:15:09;10.50;99.90
30037;DHT22;36325;51.512;-0.382;2024-02-21T12:17:36;10.50;99.90
30037;DHT22;36325;51.512;-0.382;2024-02-21T12:20:04;10.50;99.90
30037;DHT22;36325;51.512;-0.382;2024-02-21T12:22:37;10.50;99.90
30037;DHT22;36325;51.512;-0.382;2024-02-21T12:25:04;10.60;99.90
30037;DHT22;36325;51.512;-0.382;2024-02-21T12:27:34;10.60;99.90
30037;DHT22;36325;51.512;-0.382;2024-02-21T12:30:01;10.60;99.90
30037;DHT22;36325;51.512;-0.382;2024-02-21T12:32:28;10.70;99.90
30037;DHT22;36325;51.512;-0.382;2024-02-21T12:34:55;10.80;99.90
30037;DHT22;36325;51.512;-0.382;2024-02-21T12:37:23;8.40;99.90
30037;DHT22;36325;51.512;-0.382;2024-02-21T12:39:52;10.80;99.90
30037;DHT22;36325;51.512;-0.382;2024-02-21T12:42:19;10.80;99.90
30037;DHT22;36325;51.512;-0.382;2024-02-21T12:44:46;10.80;99.90
30037;DHT22;36325;51.512;-0.382;2024-02-21T12:47:13;10.80;99.90
30037;DHT22;36325;51.512;-0.382;2024-02-21T12:49:40;10.90;99.90
30037;DHT22;36325;51.512;-0.382;2024-02-21T12:52:10;10.90;99.90
30037;DHT22;36325;51.512;-0.382;2024-02-21T12:54:37;10.90;99.90
30037;DHT22;36325;51.512;-0.382;2024-02-21T12:57:05;10.90;99.90
30037;DHT22;36325;51.512;-0.382;2024-02-21T12:59:32;10.90;99.90
30037;DHT22;36325;51.512;-0.382;2024-02-21T13:01:59;10.90;99.90
30037;DHT22;36325;51.512;-0.382;2024-02-21T13:04:26;11.00;99.90
30037;DHT22;36325;51.512;-0.382;2024-02-21T13:06:54;11.00;99.90
30037;DHT22;36325;51.512;-0.382;2024-02-21T13:09:22;11.00;99.90
30037;DHT22;36325;51.512;-0.382;2024-02-21T13:11:49;11.00;99.90
30037;DHT22;36325;51.512;-0.382;2024-02-21T13:14:18;11.00;99.90
30037;DHT22;36325;51.512;-0.382;2024-02-21T13:16:45;11.00;99.90
30037;DHT22;36325;51.512;-0.382;2024-02-21T13:19:13;11.00;99.90
30037;DHT22;36325;51.512;-0.382;2024-02-21T13:21:44;11.00;99.90
30037;DHT22;36325;51.512;-0.382;2024-02-21T13:24:11;9.00;99.90
30037;DHT22;36325;51.512;-0.382;2024-02-21T13:26:39;11.00;99.90
30037;DHT22;36325;51.512;-0.382;2024-02-21T13:29:06;11.00;99.90
30037;DHT22;36325;51.512;-0.382;2024-02-21T13:31:33;11.10;99.90
30037;DHT22;36325;51.512;-0.382;2024-02-21T13:34:00;11.10;99.90
30037;DHT22;36325;51.512;-0.382;2024-02-21T13:36:27;11.10;99.90
30037;DHT22;36325;51.512;-0.382;2024-02-21T13:38:54;11.10;99.90
30037;DHT22;36325;51.512;-0.382;2024-02-21T13:41:21;11.10;99.90
30037;DHT22;36325;51.512;-0.382;2024-02-21T13:43:50;11.20;99.90
30037;DHT22;36325;51.512;-0.382;2024-02-21T13:46:17;11.20;99.90
30037;DHT22;36325;51.512;-0.382;2024-02-21T13:48:44;11.20;99.90
30037;DHT22;36325;51.512;-0.382;2024-02-21T13:51:11;11.20;99.90
30037;DHT22;36325;51.512;-0.382;2024-02-21T13:53:38;11.10;99.90
30037;DHT22;36325;51.512;-0.382;2024-02-21T13:56:06;11.20;99.90
30037;DHT22;36325;51.512;-0.382;2024-02-21T13:58:33;11.20;99.90
30037;DHT22;36325;51.512;-0.382;2024-02-21T14:01:00;11.20;99.90
30037;DHT22;36325;51.512;-0.382;2024-02-21T14:03:27;11.20;99.90
30037;DHT22;36325;51.512;-0.382;2024-02-21T14:05:54;11.20;99.90
30037;DHT22;36325;51.512;-0.382;2024-02-21T14:08:22;11.20;99.90
30037;DHT22;36325;51.512;-0.382;2024-02-21T14:10:51;11.20;99.90
30037;DHT22;36325;51.512;-0.382;2024-02-21T14:13:18;11.20;99.90
30037;DHT22;36325;51.512;-0.382;2024-02-21T14:15:45;11.20;99.90
30037;DHT22;36325;51.512;-0.382;2024-02-21T14:18:13;11.30;99.90
30037;DHT22;36325;51.512;-0.382;2024-02-21T14:20:41;11.30;99.90
30037;DHT22;36325;51.512;-0.382;2024-02-21T14:23:08;11.30;99.90
30037;DHT22;36325;51.512;-0.382;2024-02-21T14:25:35;11.30;99.90
30037;DHT22;36325;51.512;-0.382;2024-02-21T14:28:03;11.30;99.90
30037;DHT22;36325;51.512;-0.382;2024-02-21T14:30:30;11.30;99.90
30037;DHT22;36325;51.512;-0.382;2024-02-21T14:32:57;11.30;99.90
30037;DHT22;36325;51.512;-0.382;2024-02-21T14:35:24;11.30;99.90
30037;DHT22;36325;51.512;-0.382;2024-02-21T14:37:52;11.30;99.90
30037;DHT22;36325;51.512;-0.382;2024-02-21T14:40:24;11.30;99.90
30037;DHT22;36325;51.512;-0.382;2024-02-21T14:42:51;11.30;99.90
30037;DHT22;36325;51.512;-0.382;2024-02-21T14:45:19;11.30;99.90
30037;DHT22;36325;51.512;-0.382;2024-02-21T14:47:46;11.30;99.90
30037;DHT22;36325;51.512;-0.382;2024-02-21T14:50:13;11.40;99.90
30037;DHT22;36325;51.512;-0.382;2024-02-21T14:52:41;11.40;99.90
30037;DHT22;36325;51.512;-0.382;2024-02-21T14:55:08;11.40;99.90
30037;DHT22;36325;51.512;-0.382;2024-02-21T14:57:35;11.40;99.90
30037;DHT22;36325;51.512;-0.382;2024-02-21T15:00:05;11.40;99.90
30037;DHT22;36325;51.512;-0.382;2024-02-21T15:02:35;11.40;99.90
30037;DHT22;36325;51.512;-0.382;2024-02-21T15:05:03;11.50;99.90
30037;DHT22;36325;51.512;-0.382;2024-02-21T15:07:31;11.40;99.90
30037;DHT22;36325;51.512;-0.382;2024-02-21T15:09:58;11.30;99.90
30037;DHT22;36325;51.512;-0.382;2024-02-21T15:12:26;11.60;99.90
30037;DHT22;36325;51.512;-0.382;2024-02-21T15:14:53;11.60;99.90
30037;DHT22;36325;51.512;-0.382;2024-02-21T15:17:20;11.60;99.90
30037;DHT22;36325;51.512;-0.382;2024-02-21T15:19:47;11.60;99.90
30037;DHT22;36325;51.512;-0.382;2024-02-21T15:22:15;11.60;99.90
30037;DHT22;36325;51.512;-0.382;2024-02-21T15:24:42;11.60;99.90
30037;DHT22;36325;51.512;-0.382;2024-02-21T15:27:10;11.60;99.90
30037;DHT22;36325;51.512;-0.382;2024-02-21T15:29:37;11.70;99.90
30037;DHT22;36325;51.512;-0.382;2024-02-21T15:32:05;11.70;99.90